Time;durP1;ratioP1;P1;durP2;ratioP2;P2;SDS_P1;SDS_P2;PMS_P1;PMS_P2;Temp;Humidity;BMP_temperature;BMP_pressure;BME280_temperature;BME280_humidity;BME280_pressure;Samples;Min_cycle;Max_cycle;Signal;HPM_P1;HPM_P2
2023/01/06 00:01:09;;;;;;;19.23;13.73;;;12.20;99.90;;;;;;5055273;28;20029;-45
2023/01/06 00:03:35;;;;;;;18.20;14.63;;;12.20;99.90;;;;;;5054749;28;20403;-45
2023/01/06 00:06:03;;;;;;;20.17;15.68;;;12.30;99.90;;;;;;5054704;28;20104;-45
2023/01/06 00:08:29;;;;;;;18.55;14.32;;;12.10;99.90;;;;;;5070159;28;20048;-44
2023/01/06 00:10:55;;;;;;;19.02;14.32;;;12.10;99.90;;;;;;5054766;28;20032;-45
2023/01/06 00:13:21;;;;;;;20.38;15.23;;;12.10;99.90;;;;;;5036075;28;20037;-44
2023/01/06 00:15:47;;;;;;;21.05;15.30;;;12.10;99.90;;;;;;5054587;28;20029;-44
2023/01/06 00:18:13;;;;;;;18.77;14.80;;;12.10;99.90;;;;;;5054612;28;20017;-44
2023/01/06 00:20:39;;;;;;;18.33;14.57;;;12.20;99.90;;;;;;5052808;28;20029;-44
2023/01/06 00:23:05;;;;;;;19.17;14.15;;;12.20;99.90;;;;;;5054818;28;20117;-44
2023/01/06 00:25:31;;;;;;;23.13;15.75;;;12.20;99.90;;;;;;5036160;28;20123;-44
2023/01/06 00:27:56;;;;;;;19.70;15.18;;;12.10;99.90;;;;;;5054484;28;20025;-44
2023/01/06 00:30:22;;;;;;;21.63;14.98;;;12.20;99.90;;;;;;5054165;28;20542;-45
2023/01/06 00:32:49;;;;;;;21.13;15.95;;;12.20;99.90;;;;;;5054331;28;20025;-45
2023/01/06 00:35:15;;;;;;;19.73;15.43;;;12.20;99.90;;;;;;5054154;28;20059;-45
2023/01/06 00:37:40;;;;;;;20.63;15.32;;;12.10;99.90;;;;;;5043116;28;20067;-44
2023/01/06 00:40:07;;;;;;;23.70;16.65;;;12.20;99.90;;;;;;5074042;28;20028;-45
2023/01/06 00:42:32;;;;;;;23.98;17.27;;;12.10;99.90;;;;;;5039045;28;20063;-44
2023/01/06 00:44:58;;;;;;;21.38;17.52;;;11.90;99.90;;;;;;5074089;28;20063;-44
2023/01/06 00:47:24;;;;;;;20.48;17.05;;;11.70;99.90;;;;;;5073774;28;20058;-45
2023/01/06 00:49:49;;;;;;;18.13;14.55;;;11.40;99.90;;;;;;5074255;28;20032;-45
2023/01/06 00:52:15;;;;;;;18.20;13.82;;;11.50;99.90;;;;;;5055103;28;20040;-45
2023/01/06 00:54:42;;;;;;;18.85;13.88;;;11.60;99.90;;;;;;5073816;28;20025;-44
2023/01/06 00:57:08;;;;;;;19.67;14.80;;;11.30;99.90;;;;;;5074024;28;20476;-45
2023/01/06 00:59:34;;;;;;;21.48;16.13;;;11.30;99.90;;;;;;5071812;28;20059;-44
2023/01/06 01:02:00;;;;;;;19.27;14.85;;;11.10;99.90;;;;;;5031603;28;20037;-45
2023/01/06 01:04:26;;;;;;;24.05;16.25;;;11.20;99.90;;;;;;5031666;28;20437;-44
2023/01/06 01:06:53;;;;;;;15.07;11.55;;;11.10;99.90;;;;;;5031617;28;20037;-44
2023/01/06 01:09:21;;;;;;;16.90;11.63;;;11.10;99.90;;;;;;5031498;28;20088;-45
2023/01/06 01:14:33;;;;;;;15.85;11.02;;;11.20;99.90;;;;;;5031757;28;20040;-45
2023/01/06 01:16:59;;;;;;;14.55;10.65;;;11.30;99.90;;;;;;5031399;28;20084;-45
2023/01/06 01:19:26;;;;;;;19.48;12.57;;;11.30;99.90;;;;;;5014845;28;20030;-45
2023/01/06 01:21:52;;;;;;;15.40;11.30;;;11.30;99.90;;;;;;5031276;28;20041;-44
2023/01/06 01:24:18;;;;;;;16.52;13.23;;;11.40;99.90;;;;;;5031346;28;20056;-45
2023/01/06 01:26:44;;;;;;;15.27;11.90;;;11.40;99.90;;;;;;5031241;28;20042;-45
2023/01/06 01:29:15;;;;;;;16.38;11.57;;;11.30;99.90;;;;;;5030981;28;20103;-45
2023/01/06 01:31:41;;;;;;;17.60;11.40;;;11.10;99.90;;;;;;5031215;28;20030;-44
2023/01/06 01:34:09;;;;;;;16.00;10.10;;;11.10;99.90;;;;;;5072216;28;20044;-44
2023/01/06 01:36:35;;;;;;;10.57;7.78;;;11.10;99.90;;;;;;5073306;28;20035;-45
2023/01/06 01:39:00;;;;;;;13.68;9.27;;;11.20;99.90;;;;;;5054563;28;20040;-46
2023/01/06 01:41:27;;;;;;;14.55;9.18;;;11.20;99.90;;;;;;5021360;28;20090;-44
2023/01/06 01:44:00;;;;;;;14.93;10.00;;;11.10;99.90;;;;;;5073096;28;20071;-44
2023/01/06 01:46:40;;;;;;;16.48;10.55;;;11.10;99.90;;;;;;5071336;28;20042;-45
2023/01/06 01:49:16;;;;;;;16.50;10.77;;;11.20;99.90;;;;;;5073392;28;20033;-44
2023/01/06 01:51:45;;;;;;;16.48;11.15;;;11.20;99.90;;;;;;5072736;28;20056;-45
2023/01/06 01:54:14;;;;;;;16.08;10.68;;;11.10;99.90;;;;;;5073082;28;20027;-44
2023/01/06 01:56:46;;;;;;;14.50;10.70;;;11.20;99.90;;;;;;5073160;28;20039;-45
2023/01/06 01:59:17;;;;;;;17.48;11.07;;;11.30;99.90;;;;;;5071110;28;20043;-44
2023/01/06 02:01:44;;;;;;;12.82;10.35;;;11.30;99.90;;;;;;5072577;28;20032;-44
2023/01/06 02:04:10;;;;;;;22.02;13.65;;;11.30;99.90;;;;;;5072905;28;20043;-44
2023/01/06 02:06:36;;;;;;;48.47;26.38;;;11.30;99.90;;;;;;5037841;28;20032;-44
2023/01/06 02:09:27;;;;;;;56.80;31.38;;;11.20;99.90;;;;;;5072738;28;20032;-44
2023/01/06 02:11:55;;;;;;;33.58;21.25;;;11.30;99.90;;;;;;5054235;28;20036;-45
2023/01/06 02:14:23;;;;;;;32.67;21.13;;;11.30;99.90;;;;;;5072979;28;20103;-45
2023/01/06 02:17:09;;;;;;;50.50;29.10;;;11.30;99.90;;;;;;5072787;28;20032;-45
2023/01/06 02:20:14;;;;;;;46.50;26.98;;;11.30;99.90;;;;;;5073034;28;20044;-45
2023/01/06 02:22:49;;;;;;;28.98;18.83;;;11.30;99.90;;;;;;5072971;28;20036;-45
2023/01/06 02:25:31;;;;;;;25.17;15.98;;;11.30;99.90;;;;;;5072556;28;20039;-45
2023/01/06 02:28:40;;;;;;;19.27;13.15;;;11.30;99.90;;;;;;5072966;28;20048;-44
2023/01/06 02:31:14;;;;;;;19.35;13.18;;;11.30;99.90;;;;;;5072678;28;20070;-45
2023/01/06 02:34:09;;;;;;;17.35;12.80;;;11.30;99.90;;;;;;5072693;28;20035;-44
2023/01/06 02:36:44;;;;;;;17.98;13.35;;;11.30;99.90;;;;;;5072572;28;20024;-45
2023/01/06 02:39:24;;;;;;;22.70;14.48;;;11.30;99.90;;;;;;5072455;28;20035;-45
2023/01/06 02:42:28;;;;;;;111.07;63.88;;;11.20;99.90;;;;;;5072422;28;20087;-45
2023/01/06 02:45:06;;;;;;;27.30;17.63;;;11.10;99.90;;;;;;4991111;28;20045;-45
2023/01/06 02:47:38;;;;;;;20.13;13.35;;;11.00;99.90;;;;;;4991221;28;20030;-44
2023/01/06 02:50:21;;;;;;;19.83;12.68;;;10.80;99.90;;;;;;4991036;28;20042;-44
2023/01/06 02:53:00;;;;;;;67.15;39.75;;;10.90;99.90;;;;;;4990760;28;20054;-45
2023/01/06 02:55:33;;;;;;;59.80;36.55;;;11.00;99.90;;;;;;4991118;28;20061;-45
2023/01/06 02:58:26;;;;;;;57.33;36.03;;;11.00;99.90;;;;;;4991002;28;20031;-46
2023/01/06 03:01:07;;;;;;;54.22;33.85;;;11.00;99.90;;;;;;4990771;28;20053;-46
2023/01/06 03:03:36;;;;;;;67.00;44.75;;;11.00;99.90;;;;;;4991105;28;20066;-45
2023/01/06 03:06:13;;;;;;;73.32;47.28;;;11.10;99.90;;;;;;4990808;28;20130;-46
2023/01/06 03:08:42;;;;;;;81.07;50.65;;;11.10;99.90;;;;;;4990921;28;20073;-45
2023/01/06 03:11:08;;;;;;;91.43;57.05;;;11.00;99.90;;;;;;4990821;28;20034;-46
2023/01/06 03:14:04;;;;;;;48.88;32.20;;;11.10;99.90;;;;;;4991444;28;20030;-45
2023/01/06 03:16:30;;;;;;;41.38;27.85;;;11.00;99.90;;;;;;4994370;28;20522;-45
2023/01/06 03:18:56;;;;;;;29.63;19.08;;;11.10;99.90;;;;;;4994332;28;20041;-45
2023/01/06 03:21:27;;;;;;;43.40;26.48;;;11.10;99.90;;;;;;5037868;28;20540;-45
2023/01/06 03:23:53;;;;;;;22.58;15.45;;;11.10;99.90;;;;;;5075761;28;20033;-45
2023/01/06 03:26:20;;;;;;;15.30;11.50;;;11.10;99.90;;;;;;5075457;28;20063;-45
2023/01/06 03:28:45;;;;;;;15.00;10.93;;;11.10;99.90;;;;;;5075484;28;20452;-45
2023/01/06 03:31:26;;;;;;;19.45;12.60;;;11.00;99.90;;;;;;5075397;28;20113;-45
2023/01/06 03:33:59;;;;;;;30.58;19.42;;;11.00;99.90;;;;;;5075851;28;20163;-44
2023/01/06 03:36:32;;;;;;;76.85;47.25;;;11.00;99.90;;;;;;5090605;28;20039;-44
2023/01/06 03:39:10;;;;;;;51.85;31.92;;;10.90;99.90;;;;;;5075414;28;20119;-44
2023/01/06 03:45:11;;;;;;;36.85;25.50;;;10.80;99.90;;;;;;5075589;28;20035;-45
2023/01/06 03:47:47;;;;;;;23.23;15.02;;;10.90;99.90;;;;;;5056232;28;20036;-45
2023/01/06 03:50:29;;;;;;;19.13;13.38;;;10.70;99.90;;;;;;5054784;28;20143;-45
2023/01/06 03:53:15;;;;;;;18.15;14.02;;;10.80;99.90;;;;;;5055138;28;20110;-45
2023/01/06 03:55:45;;;;;;;18.80;12.38;;;10.70;99.90;;;;;;5054687;28;20033;-45
2023/01/06 03:58:11;;;;;;;17.95;12.60;;;10.70;99.90;;;;;;5036390;28;20548;-45
2023/01/06 04:00:37;;;;;;;20.92;13.30;;;10.70;99.90;;;;;;5055377;28;20064;-45
2023/01/06 04:03:12;;;;;;;15.80;11.88;;;10.70;99.90;;;;;;5053140;28;20064;-45
2023/01/06 04:05:38;;;;;;;20.17;12.68;;;10.60;99.90;;;;;;5054906;28;20080;-45
2023/01/06 04:08:04;;;;;;;13.43;9.38;;;10.70;99.90;;;;;;5055061;28;20124;-45
2023/01/06 04:10:30;;;;;;;14.20;10.75;;;10.70;99.90;;;;;;5054812;28;20025;-45
2023/01/06 04:12:55;;;;;;;16.30;12.43;;;10.80;99.90;;;;;;5019791;28;20037;-45
2023/01/06 04:15:28;;;;;;;16.70;12.25;;;10.80;99.90;;;;;;5054399;28;20485;-45
2023/01/06 04:17:53;;;;;;;;;;;10.70;99.90;;;;;;5055566;28;20037;-45
2023/01/06 04:20:28;;;;;;;11.48;7.40;;;10.60;99.90;;;;;;5054465;28;19915;-45
2023/01/06 04:22:55;;;;;;;11.80;7.72;;;10.60;99.90;;;;;;5054333;28;20481;-45
2023/01/06 04:25:21;;;;;;;12.27;8.50;;;10.60;99.90;;;;;;5054173;28;20032;-45
2023/01/06 04:27:47;;;;;;;13.32;9.00;;;10.60;99.90;;;;;;5054433;28;20032;-45
2023/01/06 04:30:13;;;;;;;15.63;10.00;;;10.40;99.90;;;;;;5054198;28;20585;-45
2023/01/06 04:32:39;;;;;;;22.23;14.10;;;10.60;99.90;;;;;;5054667;28;20067;-45
2023/01/06 04:35:05;;;;;;;23.23;15.18;;;10.70;99.90;;;;;;5054489;28;20025;-45
2023/01/06 04:37:32;;;;;;;21.92;12.88;;;10.80;99.90;;;;;;5054148;28;20028;-45
2023/01/06 04:39:57;;;;;;;16.58;13.38;;;10.70;99.90;;;;;;5054271;28;20021;-45
2023/01/06 04:42:23;;;;;;;29.17;18.42;;;10.80;99.90;;;;;;5054263;28;20035;-44
2023/01/06 04:44:49;;;;;;;17.65;11.18;;;10.90;99.90;;;;;;5054189;28;20032;-45
2023/01/06 04:47:15;;;;;;;15.52;10.65;;;10.90;99.90;;;;;;5054324;28;20036;-45
2023/01/06 04:49:40;;;;;;;16.67;11.27;;;11.00;99.90;;;;;;5052156;28;20439;-44
2023/01/06 04:52:07;;;;;;;16.98;12.77;;;10.40;99.90;;;;;;5053956;28;20059;-44
2023/01/06 04:54:34;;;;;;;19.73;14.45;;;10.10;99.90;;;;;;5054299;28;20138;-44
2023/01/06 04:57:00;;;;;;;24.83;15.57;;;10.10;99.90;;;;;;5035599;28;20037;-46
2023/01/06 04:59:26;;;;;;;23.65;16.83;;;9.60;99.90;;;;;;5054022;28;20037;-45
2023/01/06 05:01:51;;;;;;;25.67;18.45;;;9.50;99.90;;;;;;5051753;28;20120;-45
2023/01/06 05:04:17;;;;;;;25.90;18.08;;;9.60;99.90;;;;;;5053791;28;20443;-45
2023/01/06 05:06:44;;;;;;;26.08;16.92;;;9.60;99.90;;;;;;5053717;28;20082;-45
2023/01/06 05:09:10;;;;;;;29.73;17.27;;;9.70;99.90;;;;;;5053748;28;20032;-45
2023/01/06 05:11:36;;;;;;;25.05;16.35;;;9.90;99.90;;;;;;5051685;28;20522;-45
2023/01/06 05:14:02;;;;;;;26.45;17.73;;;10.00;99.90;;;;;;5053603;28;20070;-44
2023/01/06 05:16:33;;;;;;;26.35;17.77;;;10.00;99.90;;;;;;5051576;28;20033;-45
2023/01/06 05:18:59;;;;;;;38.13;19.77;;;10.10;99.90;;;;;;5018572;28;20079;-45
2023/01/06 05:21:27;;;;;;;24.35;16.67;;;10.10;99.90;;;;;;5053801;28;20029;-46
2023/01/06 05:23:53;;;;;;;25.33;17.30;;;10.20;99.90;;;;;;5053735;28;20029;-45
2023/01/06 05:26:22;;;;;;;30.40;19.23;;;10.20;99.90;;;;;;5053333;28;20360;-44
2023/01/06 05:28:48;;;;;;;26.27;18.25;;;10.30;99.90;;;;;;5053276;28;20029;-45
2023/01/06 05:31:14;;;;;;;26.65;16.55;;;10.20;99.90;;;;;;5053501;28;20155;-44
2023/01/06 05:33:40;;;;;;;23.85;17.17;;;10.30;99.90;;;;;;5053233;28;20399;-44
2023/01/06 05:36:09;;;;;;;25.50;16.67;;;10.30;99.90;;;;;;5052656;28;20104;-44
2023/01/06 05:38:35;;;;;;;27.10;17.27;;;10.10;99.90;;;;;;5053046;28;20029;-45
2023/01/06 05:41:01;;;;;;;24.65;16.60;;;10.10;99.90;;;;;;5052430;28;20427;-45
2023/01/06 05:43:27;;;;;;;27.85;16.58;;;10.00;99.90;;;;;;5053171;28;20029;-44
2023/01/06 05:45:54;;;;;;;27.48;17.20;;;10.00;99.90;;;;;;5053498;28;20029;-44
2023/01/06 05:48:23;;;;;;;24.42;16.70;;;10.00;99.90;;;;;;5053368;28;20094;-45
2023/01/06 05:50:49;;;;;;;24.80;16.42;;;9.90;99.90;;;;;;5050494;28;20104;-45
2023/01/06 05:53:15;;;;;;;25.90;17.27;;;10.00;99.90;;;;;;5033207;28;20144;-45
2023/01/06 05:55:40;;;;;;;22.25;17.38;;;10.10;99.90;;;;;;5067849;28;20072;-45
2023/01/06 05:58:06;;;;;;;25.50;17.30;;;10.10;99.90;;;;;;5059138;28;20036;-45
2023/01/06 06:00:32;;;;;;;30.92;20.23;;;10.10;99.90;;;;;;5053799;28;20025;-45
2023/01/06 06:02:57;;;;;;;30.27;21.65;;;10.20;99.90;;;;;;5059436;28;20021;-45
2023/01/06 06:05:23;;;;;;;31.65;21.90;;;10.10;99.90;;;;;;5060742;28;20033;-45
2023/01/06 06:07:55;;;;;;;35.03;23.58;;;10.10;99.90;;;;;;5062341;28;20021;-44
2023/01/06 06:10:22;;;;;;;28.95;20.63;;;10.10;99.90;;;;;;5055812;28;20040;-44
2023/01/06 06:12:50;;;;;;;33.42;20.02;;;10.00;99.90;;;;;;5053456;28;20044;-45
2023/01/06 06:15:15;;;;;;;29.73;19.50;;;10.00;99.90;;;;;;5054169;28;20480;-46
2023/01/06 06:17:41;;;;;;;31.90;19.77;;;9.90;99.90;;;;;;5040727;28;20037;-46
2023/01/06 06:20:08;;;;;;;35.63;23.52;;;10.00;99.90;;;;;;5070795;28;20464;-46
2023/01/06 06:22:33;;;;;;;32.92;20.85;;;10.00;99.90;;;;;;4999155;28;20120;-45
2023/01/06 06:24:59;;;;;;;24.63;17.63;;;10.00;99.90;;;;;;5051918;28;20156;-45
2023/01/06 06:27:25;;;;;;;31.10;23.55;;;9.90;99.90;;;;;;5052324;28;20074;-45
2023/01/06 06:29:50;;;;;;;33.88;26.67;;;9.90;99.90;;;;;;5052784;28;20087;-49
2023/01/06 06:32:16;;;;;;;70.10;59.47;;;9.90;99.90;;;;;;5052708;28;20025;-46
2023/01/06 06:34:42;;;;;;;53.75;44.08;;;10.00;99.90;;;;;;5050723;28;20033;-46
2023/01/06 06:37:07;;;;;;;65.45;52.33;;;10.10;99.90;;;;;;5051170;28;20036;-45
2023/01/06 06:39:33;;;;;;;57.08;47.08;;;10.10;99.90;;;;;;5051922;28;20119;-43
2023/01/06 06:41:59;;;;;;;39.50;29.27;;;10.20;99.90;;;;;;5053664;28;20109;-45
2023/01/06 06:44:25;;;;;;;31.55;21.40;;;10.30;99.90;;;;;;5061600;28;20377;-45
2023/01/06 06:46:50;;;;;;;59.25;35.65;;;10.30;99.90;;;;;;5060258;28;20087;-45
2023/01/06 06:49:16;;;;;;;46.55;35.38;;;10.40;99.90;;;;;;5059351;28;20036;-44
2023/01/06 06:51:46;;;;;;;70.50;48.05;;;;;;;;;;5060859;28;20083;-51
2023/01/06 06:54:12;;;;;;;63.90;44.47;;;;;;;;;;5056191;28;20529;-45
2023/01/06 06:56:38;;;;;;;37.33;28.67;;;;;;;;;;5054848;28;20457;-47
2023/01/06 06:59:04;;;;;;;37.25;27.70;;;14.20;99.90;;;;;;5053439;28;20032;-46
2023/01/06 07:01:31;;;;;;;27.98;20.70;;;16.00;99.90;;;;;;5056222;28;20335;-48
2023/01/06 07:03:57;;;;;;;28.05;21.42;;;;;;;;;;5055059;28;20055;-48
2023/01/06 07:06:26;;;;;;;41.65;33.75;;;19.40;99.90;;;;;;5037145;28;20525;-48
2023/01/06 07:08:52;;;;;;;66.35;53.08;;;20.90;99.90;;;;;;5055836;28;20067;-49
2023/01/06 07:11:19;;;;;;;26.02;19.52;;;;;;;;;;5055975;28;20452;-46
2023/01/06 07:13:45;;;;;;;28.65;19.00;;;22.50;99.90;;;;;;5056146;28;20032;-45
2023/01/06 07:16:11;;;;;;;27.40;22.17;;;20.60;96.50;;;;;;5055679;28;20032;-45
2023/01/06 07:18:37;;;;;;;24.05;16.17;;;19.60;96.00;;;;;;5056126;28;20033;-45
2023/01/06 07:21:04;;;;;;;23.38;17.38;;;;;;;;;;5055346;28;20033;-45
2023/01/06 07:23:30;;;;;;;26.63;19.20;;;;;;;;;;5037602;28;20040;-48
2023/01/06 07:25:58;;;;;;;36.83;27.48;;;16.90;98.00;;;;;;5055628;28;20138;-48
2023/01/06 07:28:25;;;;;;;25.42;19.85;;;17.10;99.30;;;;;;5053704;28;20566;-47
2023/01/06 07:30:51;;;;;;;26.08;21.42;;;17.70;99.50;;;;;;5013783;28;20077;-46
2023/01/06 07:33:18;;;;;;;27.77;23.77;;;17.50;98.70;;;;;;5013684;28;20038;-48
2023/01/06 07:35:43;;;;;;;33.15;28.90;;;17.10;98.50;;;;;;5013887;28;20045;-46
2023/01/06 07:38:09;;;;;;;27.63;22.73;;;17.00;99.20;;;;;;5013618;28;20026;-48
2023/01/06 07:40:36;;;;;;;29.92;22.00;;;18.30;99.90;;;;;;4997340;28;20034;-48
2023/01/06 07:43:05;;;;;;;23.10;18.63;;;;;;;;;;5013388;28;20026;-45
2023/01/06 07:45:32;;;;;;;23.75;19.75;;;;;;;;;;5013590;28;20477;-45
2023/01/06 07:47:58;;;;;;;28.50;23.67;;;;;;;;;;4996784;28;20259;-47
2023/01/06 07:50:24;;;;;;;26.60;23.73;;;;;;;;;;5013395;28;20084;-46
2023/01/06 07:52:50;;;;;;;28.55;20.05;;;23.80;92.40;;;;;;5013409;28;20130;-46
2023/01/06 07:55:16;;;;;;;23.17;19.17;;;;;;;;;;5013204;28;20115;-47
2023/01/06 07:57:42;;;;;;;23.00;17.90;;;25.10;91.20;;;;;;5013313;28;20030;-47
2023/01/06 08:00:09;;;;;;;22.48;20.02;;;26.10;90.70;;;;;;5012505;28;20029;-46
2023/01/06 08:02:36;;;;;;;21.80;17.20;;;;;;;;;;5045865;28;20397;-46
2023/01/06 08:05:02;;;;;;;20.08;17.27;;;;;;;;;;5036647;28;20132;-47
2023/01/06 08:07:28;;;;;;;20.52;15.68;;;28.50;86.10;;;;;;5055081;28;20586;-46
2023/01/06 08:09:54;;;;;;;21.15;16.55;;;29.00;84.30;;;;;;5036481;28;20037;-45
2023/01/06 08:12:19;;;;;;;22.40;19.65;;;29.60;82.20;;;;;;5055416;28;20029;-45
2023/01/06 08:14:46;;;;;;;25.20;22.48;;;;;;;;;;5054782;28;20029;-47
2023/01/06 08:17:12;;;;;;;21.98;18.83;;;;;;;;;;5054599;28;20458;-47
2023/01/06 08:19:38;;;;;;;21.25;18.67;;;;;;;;;;5054708;28;20032;-47
2023/01/06 08:22:04;;;;;;;17.55;15.65;;;;;;;;;;5054533;28;20539;-46
2023/01/06 08:24:30;;;;;;;18.33;16.35;;;;;;;;;;5054959;28;20083;-47
2023/01/06 08:26:57;;;;;;;18.65;16.48;;;;;;;;;;5036205;28;20079;-46
2023/01/06 08:29:24;;;;;;;18.27;16.35;;;;;;;;;;5054323;28;20483;-46
2023/01/06 08:31:50;;;;;;;17.63;15.82;;;;;;;;;;5052464;28;20037;-45
2023/01/06 08:34:16;;;;;;;17.30;15.50;;;;;;;;;;5054230;28;20090;-46
2023/01/06 08:36:43;;;;;;;19.33;17.33;;;;;;;;;;5054527;28;20067;-47
2023/01/06 08:39:09;;;;;;;18.60;16.80;;;;;;;;;;5054281;28;20103;-46
2023/01/06 08:41:36;;;;;;;18.20;14.95;;;;;;;;;;5054034;28;20393;-47
2023/01/06 08:44:02;;;;;;;17.35;14.18;;;;;;;;;;5054136;28;20401;-46
2023/01/06 08:46:28;;;;;;;18.75;16.75;;;;;;;;;;5054794;28;20025;-46
2023/01/06 08:48:55;;;;;;;15.25;13.75;;;;;;;;;;5054214;28;20392;-47
2023/01/06 08:51:22;;;;;;;14.00;12.55;;;;;;;;;;5053733;28;20124;-46
2023/01/06 08:53:48;;;;;;;16.13;12.65;;;;;;;;;;5054105;28;20041;-47
2023/01/06 08:56:16;;;;;;;15.10;13.40;;;;;;;;;;5054304;28;20029;-47
2023/01/06 08:58:42;;;;;;;33.25;30.42;;;;;;;;;;5053779;28;20033;-47
2023/01/06 09:01:16;;;;;;;31.08;28.38;;;;;;;;;;5018747;28;20128;-45
2023/01/06 09:03:42;;;;;;;27.55;24.95;;;;;;;;;;5054217;28;20028;-46
2023/01/06 09:06:08;;;;;;;13.13;11.82;;;;;;;;;;5054151;28;20461;-46
2023/01/06 09:08:34;;;;;;;12.90;11.63;;;;;;;;;;5051961;28;20083;-46
2023/01/06 09:11:07;;;;;;;14.63;13.13;;;;;;;;;;5018381;28;20040;-46
2023/01/06 09:13:34;;;;;;;27.40;24.88;;;;;;;;;;5053688;28;20116;-46
2023/01/06 09:16:01;;;;;;;46.15;42.17;;;;;;;;;;5053763;28;20033;-46
2023/01/06 09:18:27;;;;;;;19.52;14.63;;;;;;;;;;5054078;28;20108;-45
2023/01/06 09:20:53;;;;;;;13.82;10.70;;;;;;;;;;5053694;28;20092;-45
2023/01/06 09:23:20;;;;;;;12.27;8.57;;;;;;;;;;5053470;28;20033;-46
2023/01/06 09:25:46;;;;;;;30.75;21.83;;;25.70;71.10;;;;;;5053810;28;20029;-46
2023/01/06 09:28:12;;;;;;;17.85;13.48;;;;;;;;;;5034871;28;20480;-46
2023/01/06 09:30:39;;;;;;;15.93;11.80;;;25.30;73.80;;;;;;5053672;28;20048;-45
2023/01/06 09:33:05;;;;;;;13.10;11.10;;;24.60;74.00;;;;;;5035113;28;20098;-46
2023/01/06 09:35:31;;;;;;;13.02;11.73;;;24.80;74.40;;;;;;5034969;28;20044;-46
2023/01/06 09:37:57;;;;;;;13.23;9.25;;;26.10;75.40;;;;;;5053629;28;20032;-47
2023/01/06 09:40:26;;;;;;;11.70;10.60;;;;;;;;;;5068112;28;20033;-47
2023/01/06 09:42:58;;;;;;;13.15;11.73;;;;;;;;;;5053524;28;20116;-46
2023/01/06 09:45:38;;;;;;;10.65;9.63;;;28.30;84.60;;;;;;5053176;28;20385;-46
2023/01/06 09:48:06;;;;;;;13.73;12.30;;;;;;;;;;5053439;28;20139;-48
2023/01/06 09:50:37;;;;;;;13.00;10.07;;;28.70;95.30;;;;;;5053402;28;20653;-46
2023/01/06 09:53:14;;;;;;;11.40;6.85;;;28.70;71.60;;;;;;5067771;28;20131;-47
2023/01/06 09:55:47;;;;;;;11.63;10.43;;;27.50;70.40;;;;;;5052477;28;20511;-47
2023/01/06 09:58:17;;;;;;;10.43;8.10;;;26.90;71.70;;;;;;5052944;28;20052;-47
2023/01/06 10:00:45;;;;;;;12.00;9.80;;;27.00;71.90;;;;;;5053013;28;20021;-47
2023/01/06 10:03:16;;;;;;;11.98;8.50;;;26.90;72.20;;;;;;5052946;28;20029;-47
2023/01/06 10:05:54;;;;;;;11.95;9.85;;;26.80;72.00;;;;;;5053066;28;20029;-47
2023/01/06 10:08:57;;;;;;;7.18;5.45;;;27.40;71.40;;;;;;5052683;28;20067;-46
2023/01/06 10:11:37;;;;;;;8.93;5.50;;;26.00;71.40;;;;;;5053013;28;20037;-46
2023/01/06 10:14:11;;;;;;;10.00;6.72;;;24.80;72.40;;;;;;5052584;28;20119;-47
2023/01/06 10:16:58;;;;;;;8.35;6.10;;;24.30;76.30;;;;;;5055393;28;20025;-47
2023/01/06 10:19:43;;;;;;;10.48;6.72;;;;;;;;;;5057223;28;20033;-46
2023/01/06 10:22:28;;;;;;;8.40;6.30;;;23.00;99.90;;;;;;5058903;28;20036;-46
2023/01/06 10:25:15;;;;;;;9.55;6.97;;;22.20;77.40;;;;;;5066075;28;20023;-46
2023/01/06 10:27:47;;;;;;;13.43;9.93;;;21.40;78.00;;;;;;5054307;28;20057;-46
2023/01/06 10:30:23;;;;;;;18.63;12.02;;;21.00;79.90;;;;;;5056589;28;20036;-46
2023/01/06 10:32:50;;;;;;;16.75;11.30;;;;;;;;;;5056564;28;20025;-46
2023/01/06 10:35:18;;;;;;;10.45;7.15;;;;;;;;;;5056867;28;20036;-47
2023/01/06 10:37:45;;;;;;;13.82;10.25;;;;;;;;;;5056594;28;20492;-45
2023/01/06 10:40:20;;;;;;;14.48;7.40;;;;;;;;;;5055603;28;20033;-46
2023/01/06 10:42:54;;;;;;;10.35;6.65;;;;;;;;;;5054656;28;20037;-45
2023/01/06 10:45:28;;;;;;;15.98;12.80;;;20.70;80.40;;;;;;5056351;28;20472;-47
2023/01/06 10:47:55;;;;;;;11.00;8.23;;;21.00;80.60;;;;;;5049115;28;20040;-45
2023/01/06 10:50:21;;;;;;;32.40;19.90;;;20.60;93.80;;;;;;5037058;28;20045;-46
2023/01/06 10:52:48;;;;;;;23.00;17.33;;;21.40;96.00;;;;;;5045818;28;20167;-47
2023/01/06 10:55:43;;;;;;;25.88;16.95;;;21.30;97.00;;;;;;5055717;28;20095;-47
2023/01/06 10:58:19;;;;;;;12.77;6.03;;;20.60;97.30;;;;;;5047745;28;20068;-45
2023/01/06 11:01:15;;;;;;;7.60;6.20;;;20.90;97.50;;;;;;5056363;28;20400;-46
2023/01/06 11:03:42;;;;;;;10.77;6.05;;;;;;;;;;5055581;28;20036;-45
2023/01/06 11:06:28;;;;;;;12.20;7.88;;;;;;;;;;5055311;28;20036;-45
2023/01/06 11:08:54;;;;;;;13.48;8.20;;;;;;;;;;5054287;28;20434;-47
2023/01/06 11:11:21;;;;;;;8.20;6.00;;;23.80;84.90;;;;;;5055958;28;20029;-47
2023/01/06 11:13:56;;;;;;;21.98;14.40;;;24.30;75.80;;;;;;5054239;28;20800;-47
2023/01/06 11:16:31;;;;;;;13.25;7.57;;;24.20;76.40;;;;;;5055927;28;20044;-46
2023/01/06 11:19:03;;;;;;;14.07;6.28;;;24.20;74.80;;;;;;5052938;28;20029;-46
2023/01/06 11:21:39;;;;;;;;;;;23.80;76.60;;;;;;5056352;28;20048;-46
2023/01/06 11:24:19;;;;;;;10.77;7.85;;;23.60;77.30;;;;;;5055750;28;19912;-47
2023/01/06 11:26:57;;;;;;;9.65;6.15;;;24.40;75.20;;;;;;5037030;28;20037;-45
2023/01/06 11:29:33;;;;;;;10.68;6.78;;;;;;;;;;5056912;28;20124;-45
2023/01/06 11:32:04;;;;;;;15.80;7.80;;;;;;;;;;5055206;28;20460;-47
2023/01/06 11:34:30;;;;;;;8.03;5.60;;;;;;;;;;5054620;28;20032;-46
2023/01/06 11:36:58;;;;;;;19.92;11.27;;;;;;;;;;5054296;28;20016;-45
2023/01/06 11:39:34;;;;;;;19.30;12.73;;;25.10;72.80;;;;;;5056950;28;20047;-48
2023/01/06 11:42:10;;;;;;;10.68;7.68;;;25.30;72.30;;;;;;5031160;28;20108;-48
2023/01/06 11:44:39;;;;;;;15.45;7.45;;;23.80;73.70;;;;;;5053386;28;20025;-48
2023/01/06 11:47:12;;;;;;;10.38;7.03;;;23.90;75.40;;;;;;5053332;28;20093;-47
2023/01/06 11:49:47;;;;;;;8.25;6.28;;;24.20;73.90;;;;;;5052761;28;20068;-47
2023/01/06 11:52:23;;;;;;;15.18;10.48;;;24.60;73.30;;;;;;5052728;28;20052;-46
2023/01/06 11:55:07;;;;;;;14.23;10.35;;;24.60;73.40;;;;;;5054826;28;20049;-46
2023/01/06 11:58:00;;;;;;;23.73;15.30;;;23.80;73.10;;;;;;5069540;28;20067;-46
2023/01/06 12:00:44;;;;;;;12.90;9.80;;;23.90;74.20;;;;;;5047756;28;20129;-44
2023/01/06 12:03:22;;;;;;;7.85;5.57;;;23.70;75.20;;;;;;5052201;28;20040;-46
2023/01/06 12:05:56;;;;;;;10.32;5.07;;;24.40;74.60;;;;;;5054537;28;20119;-46
2023/01/06 12:08:37;;;;;;;10.10;6.93;;;24.30;73.70;;;;;;5054622;28;20037;-46
2023/01/06 12:11:13;;;;;;;10.73;6.85;;;24.80;74.40;;;;;;5054314;28;20522;-45
2023/01/06 12:13:39;;;;;;;10.82;6.95;;;;;;;;;;5054011;28;20369;-46
2023/01/06 12:16:12;;;;;;;9.07;6.03;;;23.80;73.80;;;;;;5054515;28;20055;-47
2023/01/06 12:18:40;;;;;;;10.15;7.57;;;24.10;74.50;;;;;;5061300;28;20068;-45
2023/01/06 12:21:12;;;;;;;9.50;7.35;;;23.90;74.80;;;;;;5051155;28;20037;-45
2023/01/06 12:23:43;;;;;;;14.32;10.25;;;23.30;74.80;;;;;;5054550;28;20029;-44
2023/01/06 12:26:17;;;;;;;14.60;9.70;;;;;;;;;;5054285;28;20052;-44
2023/01/06 12:28:45;;;;;;;24.00;16.80;;;21.70;87.40;;;;;;5053079;28;20037;-45
2023/01/06 12:31:39;;;;;;;13.88;9.55;;;21.50;76.70;;;;;;5054149;28;20025;-44
2023/01/06 12:34:18;;;;;;;11.40;8.32;;;22.00;77.00;;;;;;5052201;28;20037;-44
2023/01/06 12:37:05;;;;;;;26.15;15.27;;;22.00;76.60;;;;;;5054656;28;20036;-44
2023/01/06 12:39:41;;;;;;;25.10;16.17;;;;;;;;;;5054843;28;20074;-45
2023/01/06 12:42:31;;;;;;;11.73;7.43;;;20.70;78.00;;;;;;5054105;28;20033;-44
2023/01/06 12:45:20;;;;;;;10.45;6.07;;;20.40;79.80;;;;;;5045148;28;20115;-45
2023/01/06 12:47:47;;;;;;;9.80;7.30;;;21.10;78.60;;;;;;4992762;28;20034;-45
2023/01/06 12:50:51;;;;;;;8.98;5.65;;;21.50;78.00;;;;;;4992216;28;20058;-44
2023/01/06 12:53:31;;;;;;;8.98;5.95;;;21.70;77.70;;;;;;4992486;28;20486;-44
2023/01/06 12:56:12;;;;;;;12.07;7.70;;;21.70;77.60;;;;;;4992466;28;20030;-44
2023/01/06 12:58:37;;;;;;;18.10;12.02;;;21.90;78.00;;;;;;4992948;28;20042;-44
2023/01/06 13:01:37;;;;;;;15.90;11.27;;;21.60;78.50;;;;;;4992052;28;20030;-44
2023/01/06 13:04:13;;;;;;;45.28;30.33;;;;;;;;;;4934514;29;20051;-44
2023/01/06 13:06:45;;;;;;;17.25;13.57;;;;;;;;;;4934504;29;20039;-44
2023/01/06 13:09:29;;;;;;;;;;;20.20;79.20;;;;;;4934471;29;20103;-45
2023/01/06 13:12:06;;;;;;;19.38;11.85;;;20.30;80.50;;;;;;4916357;29;19911;-45
2023/01/06 13:15:10;;;;;;;14.90;10.35;;;20.10;79.70;;;;;;4931358;29;20032;-46
2023/01/06 13:17:42;;;;;;;12.60;7.30;;;;;;;;;;4931488;29;20035;-45